Ocracoke, NC

10:16 PM EDT on September 20, 2014 (GMT -0400)
Mitchell | Change Station
CLOSE
Current Station
Airport
Location: Hatteras,
Elevation: 10 ft
Nearby Weather Stations
Active Advisory: Beach Hazard Statement

Elev 10 ft 35.23 °N, 75.62 °W | Updated 16 minutes ago

Rain
Rain
69 °F
Feels Like 69 °F
N
8
Wind Variable Wind from ENE
Gusts 17 mph

Today
High -- | Low -- °F
--% Chance of Precip.
Yesterday
High -- | Low -- °F
Precip. -- in
6:50 AM 7:03 PM
Waning Crescent, 9% visible
Pressure 29.95 in
Visibility 6.0 miles
Clouds Few 2500 ft
Mostly Cloudy 4700 ft
Mostly Cloudy 7500 ft
Dew Point 69 °F
Humidity 100%
Rainfall 2.05 in
Snow Depth Not available.
UV 0 out of 12
Pollen 5.70 out of 12
Air Quality Not available.
Flu Activity Not available.
SPECI KHSE 210200Z AUTO 07007G15KT 6SM -RA BR FEW025 BKN047 BKN075 21/21 A2995 RMK AO2 P0003 T02060206 TSNO

More Conditions Fewer Conditions

Pressure 29.95 in
Visibility 6.0 miles
Clouds Few 2500 ft
Mostly Cloudy 4700 ft
Mostly Cloudy 7500 ft
Dew Point 69 °F
Humidity 100%
Rainfall 2.05 in
Snow Depth Not available.
UV 0 out of 12
Pollen 5.70 out of 12
Air Quality Not available.
Flu Activity Not available.
SPECI KHSE 210200Z AUTO 07007G15KT 6SM -RA BR FEW025 BKN047 BKN075 21/21 A2995 RMK AO2 P0003 T02060206 TSNO

More Conditions Fewer Conditions

10-Day Weather Forecast

Almanac

Astronomy

Sep. 20, 2014 Rise Set
Actual Time 6:50 AM EDT 7:03 PM EDT
Civil Twilight 6:25 AM EDT 7:28 PM EDT
Nautical Twilight 5:55 AM EDT 7:58 PM EDT
Astronomical Twilight 5:25 AM EDT 8:28 PM EDT
Moon 3:33 AM EDT (9/20) 5:00 PM EDT (9/20)
Length of Visible Light 13h 03m
Length of Day
12h 13m
Tomorrow will be 2m 10s shorter.
Waning Crescent, 9% of the Moon is Illuminated
Today
Waning Crescent
Sep 24
New
Oct 1
First Quarter
Oct 8
Full
Oct 15
Last Quarter

Today's Extremes

State Highs State Lows

Community

WunderPhotos

Upload Photos

1,755,032 photos uploaded!

WunderBlogs® & News

Nearby

Snow Depth

Station Depth Elevation
No new snow has been reported.

Earthquake Activity

City Distance Mag. Time & Date
No recent earthquake activity has been reported nearby.
Minimum magnitude displayed is 2.5.

Coastal Water Temperatures

Place Temperature
Beaufort, NC 75.0 °F
Hatteras, NC 73.9 °F
Oregon Inlet Marina, NC 73.0 °F
Duck Pier, NC 73.9 °F
Johnny Mercer Pier, Wrightsville Beach, NC 80.1 °F

Nearby Weather Stations